Hathaway, MT (59333)

7:59 AM MDT on August 27, 2016 (GMT -0600)
Graveyard Creek Road | | Change Station

Elev 3028 ft 46.18 °N, 106.07 °W | Updated 2 minutes ago

Clear
Clear
60.6 °F
Feels Like 60.6 °F
N
6.7
Wind Variable Wind from SE

Today
High -- | Low -- °F
--% Chance of Precip.
Yesterday
High -- | Low -- °F
Precip. -- in
Pressure 29.90 in
Visibility 10.0 miles
Clouds Clear
Dew Point 47 °F
Humidity 61%
Rainfall 0.00 in
Snow Depth Not available.
6:19 AM 7:51 PM
Waning Crescent, 24% visible
METAR KMLS 271353Z AUTO 16007KT 10SM CLR 12/07 A2992 RMK AO2 SLP124 T01220067
Pressure 29.90 in
Visibility 10.0 miles
Clouds Clear
Dew Point 47 °F
Humidity 61%
Rainfall 0.00 in
Snow Depth Not available.
6:19 AM 7:51 PM
Waning Crescent, 24% visible
METAR KMLS 271353Z AUTO 16007KT 10SM CLR 12/07 A2992 RMK AO2 SLP124 T01220067

10-Day Weather Forecast

Almanac

Astronomy

Aug. 27, 2016 Rise Set
Actual Time
Civil Twilight
Nautical Twilight
Astronomical Twilight
Moon
Length of Visible Light
Length of Day
Tomorrow will be .
, % of the Moon is Illuminated

Today's Extremes

State Highs State Lows

Community

WunderPhotos

Upload Photos

1,935,339 photos uploaded!

WunderBlog® & News

Nearby

Air Quality

  Air Quality AQ Index Pollutant
Not available.

Snow Depth

Station Depth Elevation

Earthquake Activity

City Distance Mag. Time & Date
Minimum magnitude displayed is 2.5.

Coastal Water Temperatures

Place Temperature

Stations

Nearby Weather Stations

Station Location Temp. Windchill Dew Point Humidity Wind Precip. Elev Updated Type
                   

Watches & Warnings

There are currently no watches in effect.